Time;durP1;ratioP1;P1;durP2;ratioP2;P2;SDS_P1;SDS_P2;PMS_P1;PMS_P2;Temp;Humidity;BMP_temperature;BMP_pressure;BME280_temperature;BME280_humidity;BME280_pressure;Samples;Min_cycle;Max_cycle;Signal;HPM_P1;HPM_P2
2022/07/29 00:02:26;;;;;;;4.38;2.17;;;14.30;99.90;;;;;;5042008;28;20084;-69
2022/07/29 00:04:51;;;;;;;3.88;2.33;;;14.30;99.90;;;;;;5035480;28;20087;-69
2022/07/29 00:07:18;;;;;;;3.45;2.30;;;14.30;99.90;;;;;;5022601;28;20044;-69
2022/07/29 00:09:43;;;;;;;3.58;2.33;;;14.30;99.90;;;;;;5053853;28;20049;-70
2022/07/29 00:12:09;;;;;;;3.67;2.20;;;14.30;99.90;;;;;;5027482;28;20052;-70
2022/07/29 00:14:35;;;;;;;3.42;2.40;;;14.30;99.90;;;;;;5043862;28;20040;-69
2022/07/29 00:17:01;;;;;;;3.72;2.50;;;14.30;99.90;;;;;;5058500;28;20123;-69
2022/07/29 00:19:27;;;;;;;3.78;2.28;;;14.20;99.90;;;;;;5044812;28;20036;-69
2022/07/29 00:21:52;;;;;;;4.07;2.30;;;14.30;99.90;;;;;;5040968;28;20139;-69
2022/07/29 00:24:18;;;;;;;5.03;2.67;;;14.20;99.90;;;;;;5040564;28;20119;-69
2022/07/29 00:26:44;;;;;;;5.10;2.20;;;14.20;99.90;;;;;;5054958;28;20042;-69
2022/07/29 00:29:09;;;;;;;3.20;2.42;;;14.20;99.90;;;;;;5043609;28;20044;-69
2022/07/29 00:31:35;;;;;;;3.40;2.47;;;14.10;99.90;;;;;;5041573;28;20032;-69
2022/07/29 00:34:02;;;;;;;6.10;2.58;;;14.10;99.90;;;;;;5020281;28;20049;-69
2022/07/29 00:36:28;;;;;;;2.75;2.50;;;14.10;99.90;;;;;;5024261;28;20231;-70
2022/07/29 00:38:53;;;;;;;5.55;2.80;;;14.10;99.90;;;;;;5059029;28;20113;-69
2022/07/29 00:41:19;;;;;;;9.50;2.97;;;14.10;99.90;;;;;;5044294;28;20425;-69
2022/07/29 00:43:45;;;;;;;6.10;3.65;;;14.00;99.90;;;;;;5021357;28;20049;-70
2022/07/29 00:46:12;;;;;;;4.32;2.50;;;14.00;99.90;;;;;;5037347;28;20045;-69
2022/07/29 00:48:38;;;;;;;4.95;2.67;;;14.00;99.90;;;;;;5042533;28;20595;-69
2022/07/29 00:51:05;;;;;;;5.22;2.70;;;14.00;99.90;;;;;;5006025;28;20064;-69
2022/07/29 00:53:31;;;;;;;3.75;2.70;;;14.00;99.90;;;;;;5020851;28;20044;-69
2022/07/29 00:55:58;;;;;;;3.40;2.58;;;14.00;99.90;;;;;;5037285;28;20039;-69
2022/07/29 00:58:26;;;;;;;5.65;3.05;;;14.00;99.90;;;;;;5035010;28;20103;-69
2022/07/29 01:00:52;;;;;;;4.38;2.80;;;14.00;99.90;;;;;;5036873;28;20050;-70
2022/07/29 01:03:18;;;;;;;4.18;2.90;;;14.00;99.90;;;;;;5024148;28;20121;-69
2022/07/29 01:05:45;;;;;;;5.65;3.03;;;14.00;99.90;;;;;;5019641;28;20187;-69
2022/07/29 01:08:16;;;;;;;5.28;2.75;;;13.90;99.90;;;;;;5014076;28;20521;-69
2022/07/29 01:10:43;;;;;;;3.20;2.63;;;13.90;99.90;;;;;;5038028;28;20113;-69
2022/07/29 01:13:10;;;;;;;6.10;2.75;;;13.90;99.90;;;;;;5032673;28;20045;-69
2022/07/29 01:15:54;;;;;;;5.20;3.10;;;13.90;99.90;;;;;;5033352;28;20044;-69
2022/07/29 01:18:34;;;;;;;4.88;2.80;;;13.80;99.90;;;;;;5035420;28;20274;-70
2022/07/29 01:21:18;;;;;;;5.47;2.75;;;13.80;99.90;;;;;;5037910;28;20056;-69
2022/07/29 01:24:28;;;;;;;5.35;2.92;;;13.80;99.90;;;;;;5040222;28;20037;-69
2022/07/29 01:27:22;;;;;;;5.47;3.17;;;13.80;99.90;;;;;;4991143;28;20148;-69
2022/07/29 01:29:56;;;;;;;3.88;3.03;;;13.80;99.90;;;;;;5005721;28;20399;-69
2022/07/29 01:32:32;;;;;;;5.35;3.08;;;13.80;99.90;;;;;;5024336;28;20056;-69
2022/07/29 01:35:06;;;;;;;5.03;3.05;;;13.80;99.90;;;;;;5054061;28;20892;-70
2022/07/29 01:37:57;;;;;;;7.22;3.10;;;13.80;99.90;;;;;;5018340;28;20659;-69
2022/07/29 01:40:47;;;;;;;9.63;3.13;;;13.80;99.90;;;;;;5018578;28;20044;-69
2022/07/29 01:43:20;;;;;;;5.45;2.88;;;13.80;99.90;;;;;;5034500;28;20185;-70
2022/07/29 01:45:53;;;;;;;6.43;3.38;;;13.80;99.90;;;;;;5022300;28;20052;-70
2022/07/29 01:48:23;;;;;;;5.57;3.10;;;13.80;99.90;;;;;;5017293;28;20041;-70
2022/07/29 01:51:01;;;;;;;7.07;3.20;;;13.80;99.90;;;;;;5037695;28;20056;-69
2022/07/29 01:53:34;;;;;;;6.80;3.25;;;13.80;99.90;;;;;;5013881;28;20072;-69
2022/07/29 01:56:01;;;;;;;5.90;3.03;;;13.80;99.90;;;;;;5018300;28;20033;-70
2022/07/29 01:58:29;;;;;;;6.10;3.00;;;13.80;99.90;;;;;;5031900;28;20073;-69
2022/07/29 02:00:58;;;;;;;5.95;3.13;;;13.80;99.90;;;;;;5019148;28;20114;-69
2022/07/29 02:03:25;;;;;;;4.95;2.97;;;13.80;99.90;;;;;;5020657;28;20056;-69
2022/07/29 02:05:52;;;;;;;4.10;2.70;;;13.80;99.90;;;;;;5020475;28;20462;-69
2022/07/29 02:08:20;;;;;;;3.42;3.00;;;13.80;99.90;;;;;;4980036;28;20059;-69
2022/07/29 02:10:48;;;;;;;4.38;2.72;;;13.80;99.90;;;;;;5038924;28;20430;-69
2022/07/29 02:13:16;;;;;;;4.90;2.88;;;13.80;99.90;;;;;;5014711;28;20146;-70
2022/07/29 02:15:43;;;;;;;4.55;3.03;;;13.90;99.90;;;;;;5038710;28;20033;-69
2022/07/29 02:18:17;;;;;;;4.80;2.90;;;13.90;99.90;;;;;;5018610;28;20724;-69
2022/07/29 02:20:53;;;;;;;4.40;2.85;;;13.80;99.90;;;;;;4998810;28;20040;-69
2022/07/29 02:23:22;;;;;;;4.65;3.05;;;13.80;99.90;;;;;;5014171;28;20055;-69
2022/07/29 02:25:56;;;;;;;5.43;3.08;;;13.80;99.90;;;;;;5022359;28;20033;-69
2022/07/29 02:28:28;;;;;;;5.97;2.88;;;13.80;99.90;;;;;;5018792;28;20040;-68
2022/07/29 02:30:59;;;;;;;5.15;2.78;;;13.90;99.90;;;;;;5021819;28;20044;-69
2022/07/29 02:33:26;;;;;;;4.22;3.35;;;13.80;99.90;;;;;;5018852;28;20033;-69
2022/07/29 02:35:52;;;;;;;4.72;2.80;;;13.80;99.90;;;;;;5018984;28;20387;-69
2022/07/29 02:41:11;;;;;;;4.05;3.03;;;13.90;99.90;;;;;;5011750;28;20507;-69
2022/07/29 02:43:39;;;;;;;3.83;2.63;;;13.90;99.90;;;;;;5031776;28;20133;-68
2022/07/29 02:46:08;;;;;;;4.43;2.80;;;13.90;99.90;;;;;;5035802;28;20482;-69
2022/07/29 02:48:41;;;;;;;3.72;2.63;;;13.90;99.90;;;;;;5029876;28;20044;-70
2022/07/29 02:51:16;;;;;;;3.15;2.47;;;13.90;99.90;;;;;;5032804;28;20698;-69
2022/07/29 02:53:44;;;;;;;4.10;2.65;;;13.90;99.90;;;;;;5033723;28;20477;-69
2022/07/29 02:56:16;;;;;;;5.50;2.97;;;13.90;99.90;;;;;;5037462;28;20037;-69
2022/07/29 02:58:48;;;;;;;5.40;2.88;;;13.90;99.90;;;;;;5038610;28;20055;-69
2022/07/29 03:01:22;;;;;;;5.97;2.50;;;13.90;99.90;;;;;;5024579;28;20551;-69
2022/07/29 03:03:51;;;;;;;5.32;2.70;;;13.90;99.90;;;;;;5019808;28;20449;-70
2022/07/29 03:06:19;;;;;;;6.57;3.30;;;13.90;99.90;;;;;;5046327;28;20056;-69
2022/07/29 03:08:45;;;;;;;5.90;3.03;;;13.90;99.90;;;;;;5022769;28;20041;-69
2022/07/29 03:11:13;;;;;;;3.78;2.58;;;13.90;99.90;;;;;;5029304;28;20076;-69
2022/07/29 03:13:39;;;;;;;4.30;2.63;;;13.90;99.90;;;;;;5039838;28;20107;-69
2022/07/29 03:16:06;;;;;;;6.85;2.70;;;13.90;99.90;;;;;;5013852;28;20106;-69
2022/07/29 03:18:32;;;;;;;5.72;2.65;;;13.90;99.90;;;;;;5034875;28;20414;-69
2022/07/29 03:20:58;;;;;;;5.28;2.75;;;13.90;99.90;;;;;;5037323;28;20036;-70
2022/07/29 03:23:27;;;;;;;4.55;2.40;;;13.80;99.90;;;;;;5010672;28;20034;-69
2022/07/29 03:25:54;;;;;;;4.78;2.63;;;13.90;99.90;;;;;;5020903;28;20057;-69
2022/07/29 03:28:19;;;;;;;4.85;2.60;;;13.90;99.90;;;;;;5023205;28;20045;-70
2022/07/29 03:30:46;;;;;;;6.00;2.75;;;13.90;99.90;;;;;;5026349;28;20037;-70
2022/07/29 03:33:12;;;;;;;4.40;2.75;;;13.90;99.90;;;;;;5028191;28;20099;-69
2022/07/29 03:35:38;;;;;;;7.63;2.80;;;13.90;99.90;;;;;;5044414;28;20104;-70
2022/07/29 03:38:04;;;;;;;5.03;2.38;;;13.90;99.90;;;;;;5032974;28;20044;-70
2022/07/29 03:40:35;;;;;;;5.03;2.63;;;13.80;99.90;;;;;;5030005;28;20054;-69
2022/07/29 03:43:02;;;;;;;3.55;2.70;;;13.80;99.90;;;;;;5022955;28;20050;-70
2022/07/29 03:45:31;;;;;;;5.43;2.35;;;13.80;99.90;;;;;;5008821;28;20049;-70
2022/07/29 03:48:08;;;;;;;5.68;2.65;;;13.80;99.90;;;;;;5025320;28;20045;-69
2022/07/29 03:50:35;;;;;;;5.28;2.75;;;13.80;99.90;;;;;;5043678;28;20487;-69
2022/07/29 03:53:01;;;;;;;5.75;2.72;;;13.80;99.90;;;;;;5023538;28;20038;-69
2022/07/29 03:55:29;;;;;;;6.70;2.80;;;13.80;99.90;;;;;;5026109;28;20048;-69
2022/07/29 03:57:56;;;;;;;4.90;2.50;;;13.80;99.90;;;;;;5024421;28;20053;-69
2022/07/29 04:00:25;;;;;;;5.40;3.00;;;13.80;99.90;;;;;;5010346;28;20042;-70
2022/07/29 04:02:51;;;;;;;4.13;2.63;;;13.80;99.90;;;;;;5022058;28;20088;-70
2022/07/29 04:05:17;;;;;;;6.57;2.60;;;13.70;99.90;;;;;;5023647;28;20072;-69
2022/07/29 04:07:44;;;;;;;3.70;2.55;;;13.70;99.90;;;;;;5027749;28;20045;-69
2022/07/29 04:10:10;;;;;;;5.32;2.38;;;13.70;99.90;;;;;;5041806;28;20037;-69
2022/07/29 04:12:36;;;;;;;7.03;2.83;;;13.70;99.90;;;;;;5025374;28;20110;-69
2022/07/29 04:15:03;;;;;;;6.05;2.58;;;13.70;99.90;;;;;;5042490;28;20348;-69
2022/07/29 04:17:29;;;;;;;5.90;2.38;;;13.70;99.90;;;;;;5020709;28;20107;-70
2022/07/29 04:19:54;;;;;;;7.60;2.45;;;13.70;99.90;;;;;;5029634;28;20406;-70
2022/07/29 04:22:20;;;;;;;7.75;2.95;;;13.70;99.90;;;;;;5040502;28;20120;-69
2022/07/29 04:24:46;;;;;;;3.92;2.55;;;13.70;99.90;;;;;;5039689;28;20067;-69
2022/07/29 04:27:12;;;;;;;2.95;2.55;;;13.70;99.90;;;;;;5042155;28;20444;-69
2022/07/29 04:29:37;;;;;;;6.05;2.70;;;13.70;99.90;;;;;;5032471;28;20040;-69
2022/07/29 04:32:03;;;;;;;4.70;2.40;;;13.70;99.90;;;;;;5040438;28;20033;-69
2022/07/29 04:34:29;;;;;;;6.63;2.58;;;13.70;99.90;;;;;;5035689;28;21710;-69
2022/07/29 04:36:55;;;;;;;3.58;2.30;;;13.70;99.90;;;;;;5033502;28;20037;-69
2022/07/29 04:39:21;;;;;;;2.80;2.28;;;13.70;99.90;;;;;;5028513;28;20082;-70
2022/07/29 04:41:47;;;;;;;5.00;2.30;;;13.70;99.90;;;;;;5039616;28;20045;-70
2022/07/29 04:44:13;;;;;;;3.13;2.65;;;13.70;99.90;;;;;;5034436;28;20040;-70
2022/07/29 04:46:39;;;;;;;8.32;2.55;;;13.80;99.90;;;;;;5040410;28;20029;-69
2022/07/29 04:49:04;;;;;;;4.55;2.33;;;13.70;99.90;;;;;;5041310;28;20426;-70
2022/07/29 04:51:30;;;;;;;2.95;2.15;;;13.80;99.90;;;;;;5037111;28;20554;-69
2022/07/29 04:53:56;;;;;;;4.53;2.92;;;13.80;99.90;;;;;;5035193;28;20128;-70
2022/07/29 04:56:22;;;;;;;3.72;2.20;;;13.80;99.90;;;;;;5041976;28;20119;-69
2022/07/29 04:58:48;;;;;;;3.45;2.70;;;13.80;99.90;;;;;;5039058;28;20154;-69
2022/07/29 05:01:14;;;;;;;4.45;2.45;;;13.80;99.90;;;;;;5039717;28;20628;-70
2022/07/29 05:03:40;;;;;;;3.03;2.42;;;13.80;99.90;;;;;;5041738;28;20037;-69
2022/07/29 05:06:06;;;;;;;5.65;2.22;;;13.80;99.90;;;;;;5019174;28;20406;-70
2022/07/29 05:08:31;;;;;;;3.53;2.38;;;13.90;99.90;;;;;;5055636;28;20036;-69
2022/07/29 05:10:57;;;;;;;4.13;2.47;;;13.90;99.90;;;;;;5032419;28;20887;-69
2022/07/29 05:13:23;;;;;;;4.75;2.90;;;13.90;99.90;;;;;;5056294;28;20400;-69
2022/07/29 05:15:49;;;;;;;3.88;2.60;;;13.90;99.90;;;;;;5037238;28;20032;-69
2022/07/29 05:18:15;;;;;;;3.28;2.33;;;13.90;99.90;;;;;;5025335;28;20635;-69
2022/07/29 05:20:41;;;;;;;5.53;2.65;;;13.90;99.90;;;;;;5041577;28;20044;-69
2022/07/29 05:23:07;;;;;;;6.88;2.60;;;14.00;99.90;;;;;;5040712;28;20037;-70
2022/07/29 05:25:32;;;;;;;4.68;2.33;;;14.10;99.90;;;;;;5055209;28;20040;-70
2022/07/29 05:27:58;;;;;;;6.03;2.63;;;14.10;99.90;;;;;;5021673;28;20041;-70
2022/07/29 05:30:24;;;;;;;4.80;2.60;;;14.20;99.90;;;;;;5032268;28;20056;-70
2022/07/29 05:32:50;;;;;;;8.75;2.67;;;14.20;99.90;;;;;;5032372;28;20041;-69
2022/07/29 05:35:16;;;;;;;3.63;2.42;;;14.20;99.90;;;;;;4989765;28;20052;-69
2022/07/29 05:37:41;;;;;;;7.32;2.60;;;14.30;99.90;;;;;;5022336;28;20452;-70
2022/07/29 05:40:08;;;;;;;6.07;2.70;;;14.30;99.90;;;;;;5005471;28;20040;-70
2022/07/29 05:42:34;;;;;;;4.85;2.97;;;14.40;99.90;;;;;;5023795;28;20128;-70
2022/07/29 05:45:00;;;;;;;5.32;2.67;;;14.40;99.90;;;;;;5008252;28;20045;-71
2022/07/29 05:47:26;;;;;;;6.30;2.80;;;14.40;99.90;;;;;;5008410;28;20048;-70
2022/07/29 05:49:52;;;;;;;6.72;2.50;;;14.50;99.90;;;;;;5008850;28;20049;-70
2022/07/29 05:52:18;;;;;;;8.27;2.90;;;14.50;99.90;;;;;;5023592;28;20037;-70
2022/07/29 05:54:44;;;;;;;5.90;3.03;;;14.50;99.90;;;;;;5022344;28;20036;-71
2022/07/29 05:57:18;;;;;;;3.10;2.33;;;14.50;99.90;;;;;;5030031;28;20049;-69
2022/07/29 05:59:44;;;;;;;4.35;2.50;;;14.50;99.90;;;;;;5011469;28;20371;-70
2022/07/29 06:02:09;;;;;;;4.18;2.70;;;14.60;99.90;;;;;;5011048;28;20616;-71
2022/07/29 06:04:35;;;;;;;7.45;2.80;;;14.60;99.90;;;;;;5044664;28;20048;-70
2022/07/29 06:07:01;;;;;;;7.00;2.72;;;14.60;99.90;;;;;;5023721;28;20045;-70
2022/07/29 06:09:27;;;;;;;4.25;2.40;;;14.60;99.90;;;;;;5005464;28;20082;-71
2022/07/29 06:11:53;;;;;;;8.10;2.72;;;14.60;99.90;;;;;;5040898;28;20037;-71
2022/07/29 06:14:19;;;;;;;7.93;3.17;;;14.70;99.90;;;;;;5007211;28;20049;-70
2022/07/29 06:16:45;;;;;;;3.83;2.55;;;14.70;99.90;;;;;;5038936;28;20040;-70
2022/07/29 06:19:11;;;;;;;4.82;2.88;;;14.70;99.90;;;;;;5006124;28;20040;-70
2022/07/29 06:21:40;;;;;;;6.95;2.95;;;14.80;99.90;;;;;;5021137;28;20096;-70
2022/07/29 06:24:06;;;;;;;5.05;2.83;;;14.80;99.90;;;;;;5005719;28;20056;-70
2022/07/29 06:26:33;;;;;;;4.18;2.60;;;14.90;99.90;;;;;;5023054;28;20045;-70
2022/07/29 06:28:58;;;;;;;4.32;2.92;;;14.90;99.90;;;;;;5005673;28;20164;-70
2022/07/29 06:31:24;;;;;;;5.60;2.85;;;15.00;99.90;;;;;;4989921;28;20046;-70
2022/07/29 06:33:50;;;;;;;5.90;2.83;;;15.00;99.90;;;;;;5023171;28;20421;-70
2022/07/29 06:36:16;;;;;;;6.32;2.85;;;15.10;99.90;;;;;;5023829;28;20073;-70
2022/07/29 06:38:41;;;;;;;4.25;2.60;;;15.20;99.90;;;;;;5002756;28;20080;-70
2022/07/29 06:41:12;;;;;;;6.25;2.75;;;15.20;99.90;;;;;;5039850;28;20075;-70
2022/07/29 06:43:42;;;;;;;6.45;2.80;;;15.30;99.90;;;;;;5021531;28;20049;-70
2022/07/29 06:46:13;;;;;;;7.47;2.65;;;15.30;99.90;;;;;;5022837;28;20087;-70
2022/07/29 06:48:40;;;;;;;6.03;2.60;;;15.40;99.90;;;;;;5022225;28;20095;-71
2022/07/29 06:51:06;;;;;;;5.53;2.90;;;15.50;99.90;;;;;;5022338;28;20047;-70
2022/07/29 06:53:33;;;;;;;5.80;2.53;;;15.50;99.90;;;;;;5039077;28;20124;-70
2022/07/29 06:56:00;;;;;;;6.82;2.72;;;15.60;99.90;;;;;;5049333;28;20043;-72
2022/07/29 06:58:27;;;;;;;4.05;2.70;;;15.70;99.90;;;;;;5021161;28;20029;-71
2022/07/29 07:00:53;;;;;;;5.97;2.92;;;15.70;99.90;;;;;;5056655;28;20045;-71
2022/07/29 07:03:19;;;;;;;3.97;2.50;;;15.80;99.90;;;;;;5036852;28;20073;-72
2022/07/29 07:05:45;;;;;;;4.88;2.70;;;15.90;99.90;;;;;;5054432;28;20461;-71
2022/07/29 07:08:12;;;;;;;11.65;3.28;;;16.00;99.90;;;;;;5015441;28;20045;-72
2022/07/29 07:10:38;;;;;;;6.00;3.25;;;16.00;99.90;;;;;;5030363;28;20037;-72
2022/07/29 07:13:05;;;;;;;4.47;2.60;;;16.10;99.90;;;;;;5030561;28;20045;-71
2022/07/29 07:15:31;;;;;;;6.07;2.65;;;16.20;99.90;;;;;;5031199;28;20041;-71
2022/07/29 07:17:57;;;;;;;6.30;2.72;;;16.30;99.90;;;;;;5014690;28;20051;-72
2022/07/29 07:20:24;;;;;;;8.80;3.47;;;16.30;99.90;;;;;;5047980;28;20040;-72
2022/07/29 07:22:49;;;;;;;7.43;2.63;;;16.40;99.90;;;;;;5031377;28;20052;-72
2022/07/29 07:25:17;;;;;;;6.82;2.28;;;16.40;99.90;;;;;;5032673;28;20041;-72
2022/07/29 07:27:43;;;;;;;6.25;2.38;;;16.50;99.90;;;;;;5027546;28;20042;-71
2022/07/29 07:30:09;;;;;;;5.82;2.50;;;16.50;99.90;;;;;;5025435;28;20053;-72
2022/07/29 07:32:35;;;;;;;7.82;2.60;;;16.50;99.90;;;;;;5014364;28;20124;-72
2022/07/29 07:35:02;;;;;;;4.15;2.55;;;16.60;99.90;;;;;;5031460;28;20059;-71
2022/07/29 07:37:28;;;;;;;4.53;2.20;;;16.70;99.90;;;;;;5031226;28;20402;-71
2022/07/29 07:39:54;;;;;;;5.60;2.63;;;16.70;99.90;;;;;;5031334;28;20052;-72
2022/07/29 07:42:19;;;;;;;6.90;2.80;;;16.80;99.90;;;;;;4986263;28;1224666;-72
2022/07/29 07:44:45;;;;;;;3.70;2.33;;;16.80;99.90;;;;;;5015405;28;20049;-72
2022/07/29 07:47:19;;;;;;;5.40;2.40;;;16.90;99.90;;;;;;5048216;28;20049;-72
2022/07/29 07:49:46;;;;;;;7.32;2.60;;;17.00;99.90;;;;;;5048095;28;20042;-71
2022/07/29 07:52:13;;;;;;;7.00;3.00;;;17.10;99.90;;;;;;5048310;28;20044;-71
2022/07/29 07:54:38;;;;;;;4.68;2.83;;;17.20;99.90;;;;;;5030529;28;20034;-71
2022/07/29 07:57:04;;;;;;;4.32;2.20;;;17.20;99.90;;;;;;4996582;28;20551;-71
2022/07/29 07:59:30;;;;;;;4.40;2.45;;;17.30;99.90;;;;;;4999010;28;20042;-72
2022/07/29 08:01:55;;;;;;;6.28;2.47;;;17.40;99.90;;;;;;5033133;28;20081;-72
2022/07/29 08:04:21;;;;;;;7.93;2.67;;;17.50;99.90;;;;;;5033061;28;20041;-72
2022/07/29 08:06:49;;;;;;;6.63;2.35;;;17.50;99.90;;;;;;5012975;28;20037;-72
2022/07/29 08:09:15;;;;;;;6.35;2.60;;;17.60;99.90;;;;;;5038132;28;20042;-72
2022/07/29 08:11:41;;;;;;;4.00;2.47;;;17.60;99.90;;;;;;5018818;28;20033;-72
2022/07/29 08:14:06;;;;;;;5.55;2.83;;;17.70;99.90;;;;;;5029722;28;20120;-71
2022/07/29 08:16:32;;;;;;;7.07;2.67;;;17.70;99.90;;;;;;4996933;28;20045;-72
2022/07/29 08:18:58;;;;;;;3.50;2.30;;;17.70;99.90;;;;;;4994124;28;20041;-72
2022/07/29 08:21:24;;;;;;;4.53;2.55;;;17.80;99.90;;;;;;4993838;28;20044;-72
2022/07/29 08:23:52;;;;;;;4.22;2.53;;;17.90;99.90;;;;;;5029594;28;20045;-72
2022/07/29 08:26:19;;;;;;;4.78;2.53;;;17.90;99.90;;;;;;5010713;28;20153;-72
2022/07/29 08:28:48;;;;;;;9.73;2.85;;;18.00;99.90;;;;;;5010134;28;20423;-72
2022/07/29 08:31:14;;;;;;;5.82;2.33;;;18.10;99.90;;;;;;5034014;28;20055;-72
2022/07/29 08:33:40;;;;;;;4.43;2.60;;;18.20;99.90;;;;;;5036314;28;20038;-72
2022/07/29 08:36:06;;;;;;;4.65;2.55;;;18.30;99.90;;;;;;5015615;28;20064;-72
2022/07/29 08:38:32;;;;;;;5.53;2.58;;;18.30;99.90;;;;;;5023438;28;20180;-72
2022/07/29 08:41:00;;;;;;;4.35;2.50;;;18.40;99.90;;;;;;5015171;28;20112;-72
2022/07/29 08:43:27;;;;;;;5.15;2.53;;;18.40;99.90;;;;;;5014586;28;20062;-71
2022/07/29 08:45:53;;;;;;;6.90;3.03;;;18.50;99.90;;;;;;5031304;28;20034;-72
2022/07/29 08:48:22;;;;;;;6.13;2.42;;;18.50;99.90;;;;;;5031553;28;20045;-71
2022/07/29 08:50:52;;;;;;;6.80;2.85;;;18.60;99.90;;;;;;5012808;28;20106;-72
2022/07/29 08:53:18;;;;;;;5.80;2.58;;;18.60;99.90;;;;;;5014640;28;20021;-71
2022/07/29 08:55:49;;;;;;;5.78;2.70;;;18.60;99.90;;;;;;5014712;28;20034;-72
2022/07/29 08:58:15;;;;;;;7.72;2.70;;;18.70;99.90;;;;;;5014778;28;20041;-72
2022/07/29 09:00:44;;;;;;;5.30;2.72;;;18.80;99.90;;;;;;5014727;28;20045;-72
2022/07/29 09:03:14;;;;;;;7.40;2.90;;;18.90;99.90;;;;;;4998302;28;20045;-72
2022/07/29 09:05:42;;;;;;;6.03;3.03;;;18.90;99.90;;;;;;5014466;28;20048;-72
2022/07/29 09:08:08;;;;;;;5.20;2.90;;;19.00;99.90;;;;;;4998007;28;20037;-72
2022/07/29 09:10:38;;;;;;;4.97;2.58;;;19.00;99.90;;;;;;5014893;28;20037;-72
2022/07/29 09:13:03;;;;;;;7.45;2.88;;;19.00;99.90;;;;;;5011097;28;20038;-72
2022/07/29 09:15:29;;;;;;;6.03;2.70;;;19.10;99.90;;;;;;5005789;28;20107;-72
2022/07/29 09:17:56;;;;;;;7.22;2.80;;;19.20;99.90;;;;;;5014215;28;20038;-72
2022/07/29 09:20:22;;;;;;;4.70;2.63;;;19.30;99.90;;;;;;4998588;28;20517;-72
2022/07/29 09:22:50;;;;;;;5.13;2.88;;;19.30;99.90;;;;;;5013506;28;20465;-72
2022/07/29 09:25:36;;;;;;;6.03;2.85;;;19.40;99.90;;;;;;5032170;28;20037;-72
2022/07/29 09:28:20;;;;;;;7.60;2.50;;;19.50;99.90;;;;;;5030535;28;20459;-72
2022/07/29 09:30:54;;;;;;;9.65;3.65;;;19.60;99.90;;;;;;4997862;28;20037;-72
2022/07/29 09:33:22;;;;;;;6.30;2.70;;;19.60;99.90;;;;;;4994475;28;20375;-72
2022/07/29 09:36:06;;;;;;;4.43;2.97;;;19.70;99.90;;;;;;5020830;28;20065;-72
2022/07/29 09:38:32;;;;;;;7.10;3.03;;;19.70;99.90;;;;;;5013282;28;20050;-72
2022/07/29 09:41:00;;;;;;;5.07;2.60;;;19.70;99.90;;;;;;4994539;28;20045;-72
2022/07/29 09:43:26;;;;;;;4.53;2.85;;;19.70;99.90;;;;;;5031841;28;20053;-72
2022/07/29 09:45:52;;;;;;;6.05;2.58;;;19.70;99.90;;;;;;5030492;28;20048;-72
2022/07/29 09:48:25;;;;;;;5.10;2.80;;;19.70;99.90;;;;;;5045799;28;20045;-72
2022/07/29 09:50:52;;;;;;;6.45;2.90;;;19.70;99.90;;;;;;5013797;28;20487;-72
2022/07/29 09:53:37;;;;;;;6.88;2.83;;;19.70;99.90;;;;;;5047241;28;20450;-72
2022/07/29 09:56:05;;;;;;;8.77;2.92;;;19.70;99.90;;;;;;5030577;28;20041;-72
2022/07/29 09:58:34;;;;;;;6.97;2.90;;;19.70;99.90;;;;;;5047241;28;20072;-72
2022/07/29 10:01:00;;;;;;;6.35;2.42;;;19.80;99.90;;;;;;4994430;28;20038;-72
2022/07/29 10:03:26;;;;;;;4.75;2.70;;;19.80;99.90;;;;;;4987674;28;20040;-72
2022/07/29 10:06:13;;;;;;;5.80;2.58;;;19.80;99.90;;;;;;5013189;28;20046;-72
2022/07/29 10:08:41;;;;;;;4.38;2.63;;;19.80;99.90;;;;;;5026915;28;20042;-72
2022/07/29 10:11:14;;;;;;;5.97;2.90;;;19.70;99.90;;;;;;5026717;28;20042;-72
2022/07/29 10:13:41;;;;;;;6.50;2.65;;;19.70;99.90;;;;;;5010000;28;20076;-72
2022/07/29 10:16:08;;;;;;;7.80;2.13;;;19.70;99.90;;;;;;4993613;28;20099;-72
2022/07/29 10:18:35;;;;;;;4.70;2.70;;;19.70;99.90;;;;;;5028092;28;20037;-72
2022/07/29 10:21:01;;;;;;;6.93;2.90;;;19.70;99.90;;;;;;5012819;28;20046;-73
2022/07/29 10:23:29;;;;;;;5.35;2.42;;;19.70;99.90;;;;;;5011269;28;20045;-72
2022/07/29 10:25:55;;;;;;;8.63;2.75;;;19.70;99.90;;;;;;5014286;28;20041;-73
2022/07/29 10:28:20;;;;;;;3.80;2.28;;;19.70;99.90;;;;;;5008898;28;20041;-73
2022/07/29 10:30:50;;;;;;;3.90;2.30;;;19.60;99.90;;;;;;5002668;28;20033;-72
2022/07/29 10:33:41;;;;;;;5.93;2.63;;;19.60;99.90;;;;;;5024486;28;20421;-72
2022/07/29 10:36:27;;;;;;;7.95;2.78;;;19.60;99.90;;;;;;4986970;28;20080;-72
2022/07/29 10:38:58;;;;;;;5.43;2.72;;;19.50;99.90;;;;;;5016800;28;20085;-72
2022/07/29 10:41:47;;;;;;;8.20;3.00;;;19.40;99.90;;;;;;5011378;28;20104;-72
2022/07/29 10:44:19;;;;;;;7.18;2.80;;;19.40;99.90;;;;;;5030541;28;20061;-72
2022/07/29 10:46:45;;;;;;;5.32;2.80;;;19.40;99.90;;;;;;5010194;28;20133;-72
2022/07/29 10:49:12;;;;;;;5.20;2.58;;;19.30;99.90;;;;;;5008830;28;20529;-73
2022/07/29 10:51:50;;;;;;;5.57;2.85;;;19.30;99.90;;;;;;5011465;28;20042;-72
2022/07/29 10:54:35;;;;;;;5.75;2.30;;;19.30;99.90;;;;;;5027890;28;20076;-72
2022/07/29 10:57:13;;;;;;;5.07;2.70;;;19.30;99.90;;;;;;5011088;28;20033;-72
2022/07/29 10:59:40;;;;;;;7.55;2.55;;;19.30;99.90;;;;;;4992760;28;20180;-72
2022/07/29 11:02:36;;;;;;;6.20;3.15;;;19.30;99.90;;;;;;5011427;28;20053;-72
2022/07/29 11:05:06;;;;;;;6.95;2.70;;;19.20;99.90;;;;;;4992168;28;20064;-72
2022/07/29 11:07:34;;;;;;;6.20;2.92;;;19.20;99.90;;;;;;5008539;28;20044;-72
2022/07/29 11:10:12;;;;;;;6.53;2.80;;;19.20;99.90;;;;;;5012232;28;20048;-72
2022/07/29 11:12:37;;;;;;;6.13;2.83;;;19.30;99.90;;;;;;5011057;28;20045;-72
2022/07/29 11:15:12;;;;;;;7.03;2.70;;;19.30;99.90;;;;;;5012720;28;20038;-72
2022/07/29 11:18:00;;;;;;;13.20;3.65;;;19.30;99.90;;;;;;5014657;28;20042;-72
2022/07/29 11:20:42;;;;;;;5.63;3.03;;;19.30;99.90;;;;;;5009420;28;20045;-72
2022/07/29 11:23:43;;;;;;;3.13;2.50;;;19.30;99.90;;;;;;5023468;28;20046;-72
2022/07/29 11:26:29;;;;;;;5.07;2.92;;;19.30;99.90;;;;;;5028573;28;20045;-72
2022/07/29 11:29:11;;;;;;;5.63;2.60;;;19.30;99.90;;;;;;5028917;28;20494;-72
2022/07/29 11:31:43;;;;;;;6.82;3.17;;;19.40;99.90;;;;;;5045439;28;20052;-72
2022/07/29 11:34:18;;;;;;;6.22;3.00;;;19.30;99.90;;;;;;5028845;28;20033;-73
2022/07/29 11:37:18;;;;;;;6.57;3.22;;;19.40;99.90;;;;;;5012133;28;20457;-72
2022/07/29 11:39:56;;;;;;;5.47;3.30;;;19.50;99.90;;;;;;4974691;28;20079;-72
2022/07/29 11:42:22;;;;;;;7.20;2.90;;;19.50;99.90;;;;;;5025834;28;20046;-72
2022/07/29 11:45:10;;;;;;;5.30;2.92;;;19.60;99.90;;;;;;5006213;28;20045;-72
2022/07/29 11:47:49;;;;;;;4.95;3.10;;;19.70;99.90;;;;;;5047171;28;20124;-72
2022/07/29 11:50:17;;;;;;;5.20;3.17;;;19.70;99.90;;;;;;5031146;28;20120;-72
2022/07/29 11:52:47;;;;;;;7.10;3.10;;;19.70;99.90;;;;;;5013446;28;20048;-72
2022/07/29 11:55:25;;;;;;;11.88;3.40;;;19.80;99.90;;;;;;5031958;28;20094;-72
2022/07/29 11:57:52;;;;;;;4.68;3.03;;;19.80;99.90;;;;;;5027209;28;20092;-73
2022/07/29 12:00:27;;;;;;;5.45;3.22;;;19.90;99.90;;;;;;5014233;28;20068;-72
2022/07/29 12:02:53;;;;;;;5.85;3.05;;;19.90;99.90;;;;;;5012579;28;20064;-72
2022/07/29 12:05:20;;;;;;;5.15;3.08;;;19.90;99.90;;;;;;5028873;28;20594;-72
2022/07/29 12:07:47;;;;;;;6.82;3.90;;;19.90;99.90;;;;;;5012541;28;20070;-73
2022/07/29 12:10:13;;;;;;;4.95;3.15;;;20.00;99.90;;;;;;5029544;28;20048;-72
2022/07/29 12:12:39;;;;;;;4.72;3.03;;;20.10;99.90;;;;;;5012581;28;20676;-72
2022/07/29 12:15:12;;;;;;;7.80;3.80;;;20.10;99.90;;;;;;5029298;28;20125;-72
2022/07/29 12:17:38;;;;;;;6.75;3.55;;;20.20;99.90;;;;;;5010825;28;20044;-73
2022/07/29 12:20:05;;;;;;;11.35;3.20;;;20.20;99.90;;;;;;5012745;28;20067;-73
2022/07/29 12:22:37;;;;;;;10.20;3.78;;;20.30;99.90;;;;;;5030280;28;20687;-73
2022/07/29 12:25:04;;;;;;;9.57;3.47;;;20.30;99.90;;;;;;5014257;28;20045;-73
2022/07/29 12:27:31;;;;;;;8.23;3.47;;;20.40;99.90;;;;;;5029749;28;20049;-73
2022/07/29 12:29:59;;;;;;;8.40;4.00;;;20.40;99.90;;;;;;5032590;28;20044;-73
2022/07/29 12:32:34;;;;;;;11.15;3.42;;;20.50;99.90;;;;;;5016170;28;20037;-73
2022/07/29 12:35:04;;;;;;;6.22;3.20;;;20.50;99.90;;;;;;5017160;28;20040;-73
2022/07/29 12:37:31;;;;;;;5.55;3.22;;;20.60;99.90;;;;;;5014879;28;20110;-73
2022/07/29 12:39:57;;;;;;;7.20;3.50;;;20.60;99.90;;;;;;5032570;28;20052;-73
2022/07/29 12:42:22;;;;;;;6.88;3.63;;;20.70;99.90;;;;;;5028074;28;20115;-73
2022/07/29 12:44:50;;;;;;;6.40;3.33;;;20.70;99.90;;;;;;5031656;28;20053;-73
2022/07/29 12:47:17;;;;;;;5.00;3.08;;;20.70;99.90;;;;;;5041007;28;20036;-72
2022/07/29 12:49:45;;;;;;;5.57;2.90;;;20.80;99.90;;;;;;5016337;28;20090;-73
2022/07/29 12:52:28;;;;;;;6.90;3.45;;;20.80;99.90;;;;;;5035892;28;20457;-73
2022/07/29 12:54:53;;;;;;;7.05;3.70;;;20.80;99.90;;;;;;5025560;28;20045;-73
2022/07/29 12:57:19;;;;;;;6.43;3.20;;;20.80;99.90;;;;;;5032125;28;20068;-73
2022/07/29 12:59:45;;;;;;;7.35;3.60;;;20.90;99.90;;;;;;5015605;28;20055;-73